Time;durP1;ratioP1;P1;durP2;ratioP2;P2;SDS_P1;SDS_P2;PMS_P1;PMS_P2;Temp;Humidity;BMP_temperature;BMP_pressure;BME280_temperature;BME280_humidity;BME280_pressure;Samples;Min_cycle;Max_cycle;Signal;HPM_P1;HPM_P2
2022/04/19 00:00:06;;;;;;;19.10;12.05;;;;;;;8.72;61.14;101448.28;5021081;28;20176;-78
2022/04/19 00:02:31;;;;;;;17.33;13.00;;;;;;;8.66;61.26;101443.72;5021114;28;20038;-77
2022/04/19 00:04:59;;;;;;;18.02;13.05;;;;;;;8.65;61.46;101439.34;5021696;28;20108;-78
2022/04/19 00:07:25;;;;;;;17.58;12.93;;;;;;;8.68;61.08;101436.84;5021520;28;20041;-78
2022/04/19 00:09:50;;;;;;;17.23;12.80;;;;;;;8.71;61.27;101436.09;5020844;28;20153;-78
2022/04/19 00:12:15;;;;;;;18.95;13.38;;;;;;;8.69;61.95;101432.56;5022421;28;20173;-77
2022/04/19 00:14:41;;;;;;;15.25;11.82;;;;;;;8.52;63.25;101435.34;5021726;28;20080;-77
2022/04/19 00:17:07;;;;;;;14.57;10.38;;;;;;;8.38;64.03;101425.19;5019077;28;20041;-77
2022/04/19 00:19:32;;;;;;;14.57;10.68;;;;;;;8.23;64.60;101420.25;5021089;28;20348;-77
2022/04/19 00:21:57;;;;;;;15.32;11.13;;;;;;;8.09;64.65;101423.09;5022455;28;20034;-77
2022/04/19 00:24:22;;;;;;;13.60;10.77;;;;;;;7.95;65.44;101427.72;5021252;28;20268;-77
2022/04/19 00:26:48;;;;;;;15.13;11.30;;;;;;;7.86;65.77;101423.81;5022508;28;20033;-77
2022/04/19 00:29:13;;;;;;;15.55;11.35;;;;;;;7.78;66.01;101424.38;5021835;28;20047;-77
2022/04/19 00:31:38;;;;;;;16.58;12.38;;;;;;;7.79;65.97;101422.66;5021573;28;20097;-77
2022/04/19 00:34:04;;;;;;;15.20;12.30;;;;;;;7.81;65.47;101421.91;5021499;28;20076;-77
2022/04/19 00:36:29;;;;;;;19.23;13.43;;;;;;;7.83;65.17;101420.28;5011514;28;20057;-77
2022/04/19 00:38:54;;;;;;;15.85;12.38;;;;;;;7.81;66.14;101424.50;5021337;28;20044;-76
2022/04/19 00:41:20;;;;;;;15.50;11.07;;;;;;;7.82;66.08;101423.69;5022218;28;20182;-76
2022/04/19 00:43:45;;;;;;;17.00;12.05;;;;;;;7.83;65.84;101425.47;5022175;28;20032;-76
2022/04/19 00:46:10;;;;;;;17.00;11.88;;;;;;;7.86;65.56;101418.63;5022099;28;20026;-77
2022/04/19 00:48:36;;;;;;;16.73;11.68;;;;;;;7.78;65.82;101424.38;5021571;28;20089;-76
2022/04/19 00:51:01;;;;;;;19.77;12.25;;;;;;;7.68;66.33;101417.00;5018948;28;20029;-76
2022/04/19 00:53:27;;;;;;;16.02;12.10;;;;;;;7.69;66.35;101417.88;5020741;28;20225;-77
2022/04/19 00:55:53;;;;;;;17.55;13.13;;;;;;;7.70;66.39;101414.47;5020179;28;20188;-77
2022/04/19 00:58:19;;;;;;;18.52;12.93;;;;;;;7.73;66.09;101414.59;5022164;28;20026;-77
2022/04/19 01:00:44;;;;;;;16.75;12.82;;;;;;;7.73;66.89;101423.28;5025020;28;20033;-77
2022/04/19 01:03:09;;;;;;;17.50;13.07;;;;;;;7.70;66.81;101420.53;5025696;28;20077;-77
2022/04/19 01:05:35;;;;;;;16.30;12.57;;;;;;;7.55;66.58;101423.34;5025656;28;20026;-77
2022/04/19 01:08:01;;;;;;;19.38;12.80;;;;;;;7.42;67.30;101423.63;5014874;28;20034;-77
2022/04/19 01:10:26;;;;;;;17.23;12.77;;;;;;;7.31;67.97;101421.41;5025549;28;20080;-77
2022/04/19 01:15:36;;;;;;;17.15;12.90;;;;;;;7.30;67.76;101422.22;5025633;28;20073;-76
2022/04/19 01:18:02;;;;;;;17.98;13.40;;;;;;;7.35;68.35;101424.16;5025261;28;20097;-76
2022/04/19 01:20:28;;;;;;;17.80;12.73;;;;;;;7.36;67.98;101421.63;5026964;28;20068;-76
2022/04/19 01:22:54;;;;;;;19.17;12.85;;;;;;;7.32;68.46;101415.41;5025041;28;20303;-76
2022/04/19 01:25:20;;;;;;;17.48;12.95;;;;;;;7.28;68.78;101413.47;5025194;28;20088;-76
2022/04/19 01:27:46;;;;;;;16.35;12.45;;;;;;;7.18;68.54;101415.59;5025106;28;20030;-76
2022/04/19 01:30:13;;;;;;;18.02;12.70;;;;;;;7.02;68.09;101407.09;5025202;28;20030;-76
2022/04/19 01:32:38;;;;;;;17.73;13.05;;;;;;;6.80;68.47;101415.53;5023873;28;20044;-76
2022/04/19 01:35:16;;;;;;;16.10;12.73;;;;;;;6.68;69.21;101408.06;5025172;28;20284;-76
2022/04/19 01:37:51;;;;;;;17.83;12.40;;;;;;;6.58;69.08;101403.25;5023928;28;20140;-76
2022/04/19 01:40:17;;;;;;;18.17;12.88;;;;;;;6.47;69.47;101407.03;5023705;28;20030;-76
2022/04/19 01:42:48;;;;;;;19.63;13.65;;;;;;;6.41;69.99;101405.91;5024912;28;20045;-76
2022/04/19 01:45:17;;;;;;;20.15;14.93;;;;;;;6.37;69.88;101401.41;5013676;28;20021;-76
2022/04/19 01:47:43;;;;;;;20.13;14.90;;;;;;;6.35;70.96;101403.00;5023442;28;20264;-76
2022/04/19 01:50:11;;;;;;;20.25;13.85;;;;;;;6.34;71.33;101401.22;5023685;28;20021;-77
2022/04/19 01:52:39;;;;;;;17.50;13.48;;;;;;;6.39;71.87;101407.53;5023403;28;20056;-77
2022/04/19 01:55:06;;;;;;;16.77;12.52;;;;;;;6.39;71.91;101399.75;5024624;28;20071;-77
2022/04/19 01:57:32;;;;;;;17.95;12.95;;;;;;;6.48;71.48;101394.16;5023364;28;20033;-76
2022/04/19 01:59:57;;;;;;;18.30;13.45;;;;;;;6.60;70.80;101406.81;5024629;28;20137;-76
2022/04/19 02:02:23;;;;;;;18.77;13.73;;;;;;;6.71;69.85;101397.84;5024394;28;20034;-77
2022/04/19 02:04:50;;;;;;;17.77;13.35;;;;;;;6.75;68.73;101402.38;5024659;28;20042;-76
2022/04/19 02:07:16;;;;;;;18.30;14.30;;;;;;;6.78;69.27;101399.06;5023259;28;20013;-77
2022/04/19 02:09:41;;;;;;;19.00;13.63;;;;;;;6.83;68.56;101399.28;5024620;28;20025;-77
2022/04/19 02:12:07;;;;;;;19.95;14.35;;;;;;;6.86;68.31;101399.41;5023416;28;20026;-77
2022/04/19 02:14:32;;;;;;;19.88;14.07;;;;;;;6.86;68.39;101397.69;5024315;28;20033;-77
2022/04/19 02:16:58;;;;;;;20.90;14.65;;;;;;;6.88;68.79;101400.34;5024338;28;20057;-77
2022/04/19 02:19:23;;;;;;;23.58;15.48;;;;;;;6.88;68.73;101396.09;5024413;28;20109;-77
2022/04/19 02:21:48;;;;;;;22.30;15.18;;;;;;;6.83;68.19;101394.09;5024250;28;20332;-77
2022/04/19 02:24:13;;;;;;;18.48;13.93;;;;;;;6.81;67.59;101394.03;5024033;28;20021;-77
2022/04/19 02:26:39;;;;;;;18.95;14.73;;;;;;;6.79;68.07;101391.34;5024091;28;20037;-77
2022/04/19 02:29:04;;;;;;;21.23;15.27;;;;;;;6.77;68.16;101386.91;5023997;28;20192;-77
2022/04/19 02:31:30;;;;;;;19.67;14.10;;;;;;;6.75;68.24;101393.72;5024044;28;20030;-77
2022/04/19 02:33:58;;;;;;;20.70;15.30;;;;;;;6.69;69.38;101383.06;5023858;28;20256;-77
2022/04/19 02:36:23;;;;;;;20.63;14.87;;;;;;;6.73;69.29;101387.56;5023753;28;20076;-77
2022/04/19 02:38:49;;;;;;;21.80;14.82;;;;;;;6.74;69.02;101381.59;5023790;28;20030;-77
2022/04/19 02:41:14;;;;;;;21.23;16.13;;;;;;;6.76;70.10;101386.03;5022475;28;20068;-76
2022/04/19 02:43:39;;;;;;;24.80;17.27;;;;;;;6.74;70.56;101382.47;5019624;28;20265;-76
2022/04/19 02:46:04;;;;;;;24.38;17.27;;;;;;;6.71;70.88;101382.31;5020663;28;20026;-76
2022/04/19 02:48:30;;;;;;;26.65;17.58;;;;;;;6.69;71.05;101383.97;5023752;28;20227;-76
2022/04/19 02:50:56;;;;;;;23.25;16.27;;;;;;;6.69;70.53;101378.78;5023700;28;20030;-76
2022/04/19 02:53:21;;;;;;;20.30;16.00;;;;;;;6.71;70.14;101377.13;5022321;28;20018;-76
2022/04/19 02:55:48;;;;;;;27.13;18.65;;;;;;;6.73;71.33;101380.69;5023592;28;20026;-76
2022/04/19 02:58:13;;;;;;;23.95;17.42;;;;;;;6.74;70.72;101376.41;5023405;28;20327;-76
2022/04/19 03:00:39;;;;;;;23.17;17.00;;;;;;;6.75;70.87;101373.00;5023436;28;20034;-76
2022/04/19 03:03:04;;;;;;;21.02;16.02;;;;;;;6.74;71.11;101368.63;5023439;28;20486;-76
2022/04/19 03:05:30;;;;;;;21.75;15.90;;;;;;;6.70;71.07;101375.34;5023520;28;20030;-76
2022/04/19 03:07:56;;;;;;;19.63;14.82;;;;;;;6.72;70.86;101381.53;5023301;28;20041;-76
2022/04/19 03:10:21;;;;;;;19.45;14.68;;;;;;;6.71;70.77;101377.13;5023347;28;20329;-76
2022/04/19 03:12:47;;;;;;;19.88;14.88;;;;;;;6.68;71.01;101370.94;5023235;28;20032;-76
2022/04/19 03:15:12;;;;;;;18.27;13.77;;;;;;;6.65;71.59;101374.28;5023382;28;20295;-76
2022/04/19 03:17:38;;;;;;;21.20;15.35;;;;;;;6.64;71.51;101371.59;5023387;28;20021;-76
2022/04/19 03:20:08;;;;;;;21.70;14.32;;;;;;;6.55;70.97;101369.47;5021958;28;20075;-76
2022/04/19 03:28:02;;;;;;;21.20;15.48;;;;;;;6.48;71.16;101372.56;5011047;28;20249;-76
2022/04/19 03:30:27;;;;;;;23.77;16.63;;;;;;;6.46;71.11;101369.00;5022957;28;20022;-76
2022/04/19 03:32:54;;;;;;;22.15;15.77;;;;;;;6.40;71.65;101374.75;5023152;28;20105;-77
2022/04/19 03:35:19;;;;;;;21.88;15.93;;;;;;;6.36;71.64;101367.69;5022916;28;20024;-77
2022/04/19 03:37:44;;;;;;;23.48;16.90;;;;;;;6.32;70.96;101376.09;5022709;28;20022;-76
2022/04/19 03:40:10;;;;;;;24.58;17.30;;;;;;;6.35;70.33;101374.53;5022891;28;20280;-76
2022/04/19 03:42:35;;;;;;;25.20;17.92;;;;;;;6.36;70.26;101378.91;5022943;28;20030;-76
2022/04/19 03:45:01;;;;;;;22.45;16.45;;;;;;;6.38;70.65;101376.41;5018989;28;20124;-77
2022/04/19 03:47:26;;;;;;;23.15;16.63;;;;;;;6.38;70.58;101372.09;5022836;28;20192;-76
2022/04/19 03:49:51;;;;;;;23.00;15.82;;;;;;;6.36;70.60;101373.75;5022850;28;20026;-76
2022/04/19 03:52:17;;;;;;;23.85;16.85;;;;;;;6.35;70.33;101376.25;5021778;28;20176;-76
2022/04/19 03:54:42;;;;;;;21.88;16.08;;;;;;;6.31;70.96;101376.91;5022650;28;20064;-76
2022/04/19 03:57:09;;;;;;;21.88;15.77;;;;;;;6.29;70.81;101371.66;5022530;28;20051;-76
2022/04/19 03:59:41;;;;;;;21.98;15.75;;;;;;;6.23;71.03;101372.25;5022928;28;20026;-76
2022/04/19 04:02:07;;;;;;;20.85;14.93;;;;;;;6.17;71.18;101371.03;5021525;28;20076;-76
2022/04/19 04:04:35;;;;;;;20.17;15.15;;;;;;;6.14;71.92;101376.97;5022554;28;20089;-76
2022/04/19 04:07:01;;;;;;;20.58;15.32;;;;;;;6.06;72.73;101373.09;5022531;28;20049;-76
2022/04/19 04:09:32;;;;;;;25.17;15.88;;;;;;;5.99;72.73;101377.06;5022568;28;20082;-76
2022/04/19 04:12:02;;;;;;;23.02;16.13;;;;;;;5.96;72.69;101378.59;5022547;28;20029;-76
2022/04/19 04:14:29;;;;;;;21.48;15.32;;;;;;;5.92;72.68;101378.44;5022554;28;20025;-76
2022/04/19 04:16:54;;;;;;;23.27;16.15;;;;;;;5.90;73.11;101376.56;5022353;28;20049;-76
2022/04/19 04:19:20;;;;;;;21.65;15.75;;;;;;;5.84;73.71;101377.16;5021017;28;20018;-77
2022/04/19 04:21:45;;;;;;;21.10;15.77;;;;;;;5.73;73.83;101376.56;5023534;28;20046;-76
2022/04/19 04:24:10;;;;;;;22.92;16.67;;;;;;;5.65;74.53;101380.47;5022334;28;20088;-76
2022/04/19 04:26:36;;;;;;;23.45;16.25;;;;;;;5.66;73.24;101373.59;5021212;28;20029;-76
2022/04/19 04:29:01;;;;;;;23.85;16.25;;;;;;;5.71;72.64;101379.91;5022204;28;20256;-76
2022/04/19 04:31:26;;;;;;;24.33;17.33;;;;;;;5.73;72.32;101383.44;5022386;28;20025;-76
2022/04/19 04:33:51;;;;;;;26.40;17.73;;;;;;;5.75;72.42;101382.72;5004827;28;20057;-76
2022/04/19 04:36:19;;;;;;;22.27;16.52;;;;;;;5.78;72.63;101382.00;5025005;28;20040;-76
2022/04/19 04:38:44;;;;;;;24.27;16.90;;;;;;;5.80;72.99;101388.13;5025001;28;20017;-76
2022/04/19 04:41:09;;;;;;;21.25;14.88;;;;;;;5.79;73.33;101391.53;5026042;28;20040;-76
2022/04/19 04:43:35;;;;;;;23.63;16.70;;;;;;;5.69;73.66;101387.59;5024411;28;20097;-76
2022/04/19 04:51:28;;;;;;;23.00;16.42;;;;;;;5.32;75.84;101393.38;5025714;28;20072;-76
2022/04/19 04:53:53;;;;;;;22.92;16.58;;;;;;;5.22;76.69;101393.69;5025758;28;20029;-76
2022/04/19 04:56:18;;;;;;;27.58;17.40;;;;;;;5.17;77.38;101395.13;5025731;28;20050;-77
2022/04/19 04:58:44;;;;;;;24.63;17.20;;;;;;;5.16;77.16;101398.53;5025704;28;20273;-77
2022/04/19 05:01:09;;;;;;;27.60;18.25;;;;;;;5.21;77.29;101398.00;5025484;28;20018;-77
2022/04/19 05:03:34;;;;;;;26.70;16.85;;;;;;;5.31;77.19;101399.34;5024268;28;20083;-77
2022/04/19 05:05:59;;;;;;;25.42;18.02;;;;;;;5.33;77.49;101400.34;5025435;28;20026;-77
2022/04/19 05:08:25;;;;;;;26.15;18.23;;;;;;;5.40;76.36;101406.72;5025416;28;20022;-77
2022/04/19 05:10:50;;;;;;;27.08;17.92;;;;;;;5.46;75.93;101403.56;5025368;28;20029;-77
2022/04/19 05:13:15;;;;;;;27.20;18.60;;;;;;;5.50;76.06;101400.34;5025144;28;20049;-77
2022/04/19 05:15:41;;;;;;;26.33;17.90;;;;;;;5.48;77.22;101394.22;5025398;28;20304;-77
2022/04/19 05:18:06;;;;;;;37.80;19.98;;;;;;;5.46;77.04;101404.47;5025433;28;20030;-77
2022/04/19 05:20:31;;;;;;;51.38;22.73;;;;;;;5.48;77.02;101401.97;5025363;28;20021;-77
2022/04/19 05:22:57;;;;;;;68.43;24.85;;;;;;;5.46;76.98;101403.56;5025159;28;20109;-77
2022/04/19 05:25:22;;;;;;;54.55;22.95;;;;;;;5.45;77.49;101407.84;5025172;28;20030;-77
2022/04/19 05:27:47;;;;;;;42.75;21.02;;;;;;;5.48;77.32;101407.13;5025104;28;20056;-77
2022/04/19 05:30:12;;;;;;;32.63;19.92;;;;;;;5.51;77.90;101404.72;5023847;28;20018;-77
2022/04/19 05:32:38;;;;;;;36.20;20.85;;;;;;;5.58;77.27;101405.09;5025064;28;20139;-77
2022/04/19 05:35:03;;;;;;;33.92;20.08;;;;;;;5.65;77.13;101401.16;5025080;28;20042;-77
2022/04/19 05:37:28;;;;;;;32.53;19.75;;;;;;;5.74;76.47;101406.81;5024938;28;20092;-77
2022/04/19 05:39:54;;;;;;;32.17;19.15;;;;;;;5.83;75.58;101403.81;5025043;28;20014;-77
2022/04/19 05:42:19;;;;;;;31.75;19.80;;;;;;;5.91;75.61;101405.09;5024923;28;20052;-77
2022/04/19 05:44:44;;;;;;;31.98;19.65;;;;;;;5.97;75.40;101399.38;5014424;28;20018;-77
2022/04/19 05:47:10;;;;;;;34.75;20.90;;;;;;;6.05;74.81;101403.25;5023966;28;20025;-77
2022/04/19 05:49:35;;;;;;;37.15;20.75;;;;;;;6.13;74.83;101400.19;5023699;28;20422;-77
2022/04/19 05:52:01;;;;;;;35.78;22.00;;;;;;;6.21;74.24;101401.44;5024645;28;20030;-77
2022/04/19 05:54:27;;;;;;;35.03;21.08;;;;;;;6.26;74.48;101406.03;5024549;28;20109;-77
2022/04/19 05:56:52;;;;;;;36.53;21.45;;;;;;;6.33;74.14;101399.47;5024654;28;20191;-77
2022/04/19 05:59:17;;;;;;;35.92;21.17;;;;;;;6.40;74.33;101400.66;5024555;28;20052;-77
2022/04/19 06:07:10;;;;;;;33.30;22.42;;;;;;;6.66;73.41;101413.97;5024281;28;20291;-76
2022/04/19 06:09:36;;;;;;;35.97;22.30;;;;;;;6.73;73.17;101411.75;5024297;28;20041;-76
2022/04/19 06:12:01;;;;;;;35.67;22.35;;;;;;;6.81;73.00;101409.56;5024246;28;20021;-77
2022/04/19 06:14:27;;;;;;;35.25;21.60;;;;;;;6.89;72.59;101415.09;5024260;28;20037;-76
2022/04/19 06:16:52;;;;;;;33.42;21.50;;;;;;;7.02;70.04;101414.84;5024389;28;20155;-76
2022/04/19 06:19:18;;;;;;;37.45;22.40;;;;;;;7.14;71.33;101422.34;5023210;28;20026;-76
2022/04/19 06:21:44;;;;;;;33.33;21.35;;;;;;;7.26;70.79;101420.31;5024221;28;20046;-77
2022/04/19 06:24:10;;;;;;;37.35;22.58;;;;;;;7.40;69.80;101425.22;5022898;28;20021;-77
2022/04/19 06:26:35;;;;;;;39.58;22.63;;;;;;;7.54;69.87;101420.69;5024102;28;20093;-76
2022/04/19 06:29:01;;;;;;;37.33;22.55;;;;;;;7.67;69.35;101425.59;5024279;28;20208;-76
2022/04/19 06:31:27;;;;;;;35.55;21.95;;;;;;;7.85;68.87;101420.34;5023848;28;20042;-76
2022/04/19 06:33:53;;;;;;;33.60;20.38;;;;;;;8.49;66.01;101427.44;5022813;28;20269;-77
2022/04/19 06:36:19;;;;;;;33.80;20.80;;;;;;;10.54;60.62;101412.44;5023809;28;20024;-76
2022/04/19 06:38:44;;;;;;;35.22;20.65;;;;;;;12.65;55.07;101415.88;5023997;28;20052;-76
2022/04/19 06:41:11;;;;;;;33.28;19.63;;;;;;;14.84;49.03;101415.84;5022632;28;20029;-76
2022/04/19 06:43:37;;;;;;;30.92;19.10;;;;;;;16.94;43.93;101410.28;5019951;28;20029;-77
2022/04/19 06:46:02;;;;;;;34.15;19.35;;;;;;;18.74;38.84;101412.53;5021261;28;20018;-77
2022/04/19 06:48:29;;;;;;;35.20;19.90;;;;;;;20.38;35.51;101414.50;5023824;28;20029;-76
2022/04/19 06:50:54;;;;;;;33.05;20.40;;;;;;;21.13;33.65;101407.63;5023677;28;20196;-77
2022/04/19 06:53:20;;;;;;;36.05;21.30;;;;;;;19.85;35.10;101417.50;5022550;28;20014;-77
2022/04/19 06:55:45;;;;;;;39.45;21.88;;;;;;;18.33;38.72;101410.78;5022224;28;20022;-77
2022/04/19 06:58:10;;;;;;;40.72;21.90;;;;;;;16.97;40.25;101423.47;5023193;28;20030;-77
2022/04/19 07:00:36;;;;;;;40.42;22.55;;;;;;;15.84;42.88;101418.94;5023409;28;20036;-77
2022/04/19 07:03:01;;;;;;;44.83;23.10;;;;;;;14.94;43.88;101423.88;5023526;28;20097;-77
2022/04/19 07:05:26;;;;;;;45.97;23.67;;;;;;;14.20;46.85;101419.13;5023479;28;20034;-77
2022/04/19 07:07:51;;;;;;;44.00;21.50;;;;;;;13.65;47.64;101419.84;5023429;28;20026;-77
2022/04/19 07:10:17;;;;;;;46.40;23.50;;;;;;;13.24;49.69;101422.44;5023380;28;20072;-77
2022/04/19 07:12:42;;;;;;;44.78;23.30;;;;;;;12.92;51.34;101427.84;5023002;28;20108;-77
2022/04/19 07:15:08;;;;;;;47.58;24.02;;;;;;;12.65;52.23;101428.94;5023338;28;20029;-77
2022/04/19 07:17:36;;;;;;;44.55;23.13;;;;;;;12.45;52.32;101427.56;5022019;28;20118;-77
2022/04/19 07:28:14;;;;;;;44.53;20.42;;;;;;;12.10;52.00;101422.31;5022999;28;20230;-77
2022/04/19 07:30:39;;;;;;;44.13;21.13;;;;;;;12.08;52.54;101431.81;5022998;28;20037;-77
2022/04/19 07:33:05;;;;;;;39.63;19.75;;;;;;;12.07;52.88;101430.94;5022787;28;20021;-77
2022/04/19 07:35:31;;;;;;;45.75;20.98;;;;;;;12.09;53.46;101428.38;5021662;28;20042;-77
2022/04/19 07:37:56;;;;;;;41.22;19.35;;;;;;;12.11;53.07;101437.16;5022950;28;20043;-77
2022/04/19 07:40:22;;;;;;;43.08;20.25;;;;;;;12.13;52.61;101438.06;5022837;28;20095;-76
2022/04/19 07:42:47;;;;;;;43.38;20.50;;;;;;;12.14;50.97;101432.00;5022753;28;20022;-76
2022/04/19 07:45:12;;;;;;;40.20;19.80;;;;;;;12.15;51.74;101442.50;5020425;28;20036;-76
2022/04/19 07:47:38;;;;;;;42.55;20.25;;;;;;;12.16;52.44;101441.63;5021669;28;20033;-76
2022/04/19 07:50:03;;;;;;;45.50;19.92;;;;;;;12.22;54.07;101446.13;5022882;28;20037;-77
2022/04/19 07:52:29;;;;;;;43.55;20.23;;;;;;;12.28;53.45;101440.19;5022846;28;20091;-77
2022/04/19 07:54:54;;;;;;;40.28;20.35;;;;;;;12.33;52.82;101439.47;5022654;28;20038;-77
2022/04/19 07:57:20;;;;;;;47.63;21.58;;;;;;;12.40;54.36;101440.53;5022751;28;20050;-77
2022/04/19 07:59:46;;;;;;;42.92;19.88;;;;;;;12.48;53.15;101440.72;5022693;28;20196;-77
2022/04/19 08:02:11;;;;;;;41.15;20.63;;;;;;;12.55;51.34;101442.63;5022734;28;20025;-77
2022/04/19 08:04:37;;;;;;;42.47;20.48;;;;;;;12.62;52.46;101447.16;5023023;28;20268;-77
2022/04/19 08:07:02;;;;;;;41.88;20.60;;;;;;;12.67;52.12;101442.03;5022692;28;20327;-77
2022/04/19 08:09:27;;;;;;;46.95;20.75;;;;;;;12.75;52.08;101444.88;5022393;28;20033;-77
2022/04/19 08:11:53;;;;;;;45.15;20.50;;;;;;;12.82;51.35;101438.94;5026521;28;20583;-77
2022/04/19 08:14:19;;;;;;;40.33;18.63;;;;;;;12.89;51.19;101440.84;5025143;28;20049;-77
2022/04/19 08:16:44;;;;;;;41.72;20.00;;;;;;;12.97;51.68;101441.91;5026688;28;20022;-77
2022/04/19 08:19:10;;;;;;;36.97;17.40;;;;;;;13.07;50.52;101437.78;5026475;28;20018;-77
2022/04/19 08:21:35;;;;;;;36.05;17.55;;;;;;;13.15;52.50;101427.47;5026288;28;20041;-77
2022/04/19 08:24:00;;;;;;;33.92;16.33;;;;;;;13.22;51.96;101432.00;5026072;28;20021;-77
2022/04/19 08:26:26;;;;;;;37.10;16.25;;;;;;;13.32;51.14;101427.84;5026065;28;20089;-76
2022/04/19 08:28:51;;;;;;;33.60;15.40;;;;;;;13.42;50.98;101424.59;5026232;28;20317;-76
2022/04/19 08:31:16;;;;;;;33.08;15.38;;;;;;;13.53;51.12;101427.47;5026292;28;20038;-76
2022/04/19 08:33:44;;;;;;;32.03;15.20;;;;;;;13.61;50.34;101418.00;5026503;28;20150;-76
2022/04/19 08:36:09;;;;;;;31.27;14.95;;;;;;;13.69;48.22;101415.56;5026191;28;20260;-76
2022/04/19 08:38:35;;;;;;;28.58;15.02;;;;;;;13.77;48.26;101415.72;5026051;28;20084;-76
2022/04/19 08:41:00;;;;;;;31.83;14.73;;;;;;;13.85;47.88;101415.00;5024898;28;20029;-76
2022/04/19 08:43:26;;;;;;;29.63;13.73;;;;;;;13.94;48.25;101422.16;5023539;28;20045;-77
2022/04/19 08:45:52;;;;;;;28.65;13.18;;;;;;;14.01;47.16;101424.03;5016579;28;20022;-77
2022/04/19 08:48:19;;;;;;;25.05;12.80;;;;;;;14.06;45.65;101417.16;5024854;28;20044;-78
2022/04/19 08:50:49;;;;;;;29.83;13.80;;;;;;;14.14;46.85;101424.28;5025896;28;20057;-78
2022/04/19 08:58:43;;;;;;;32.38;13.38;;;;;;;14.41;48.49;101414.28;5025769;28;20052;-78
2022/04/19 09:01:09;;;;;;;25.05;11.82;;;;;;;14.50;46.69;101417.91;5025773;28;20022;-78
2022/04/19 09:03:37;;;;;;;24.80;11.82;;;;;;;14.63;49.02;101417.28;5025941;28;20048;-78
2022/04/19 09:06:03;;;;;;;26.60;10.40;;;;;;;14.67;44.13;101415.56;5025699;28;20089;-78
2022/04/19 09:08:29;;;;;;;22.50;10.82;;;;;;;14.69;45.09;101422.63;5025811;28;20088;-78
2022/04/19 09:11:04;;;;;;;23.88;10.55;;;;;;;14.76;47.67;101415.75;5025658;28;20049;-78
2022/04/19 09:13:29;;;;;;;23.30;11.70;;;;;;;14.84;46.66;101410.59;5024476;28;20033;-78
2022/04/19 09:15:54;;;;;;;25.40;12.13;;;;;;;14.90;44.70;101411.59;5025086;28;20084;-78
2022/04/19 09:18:21;;;;;;;24.45;11.75;;;;;;;14.94;44.85;101405.50;5024516;28;20253;-79
2022/04/19 09:20:52;;;;;;;23.80;10.88;;;;;;;15.01;45.48;101411.72;5023345;28;20096;-79
2022/04/19 09:23:17;;;;;;;21.58;10.23;;;;;;;15.09;46.09;101404.84;5022645;28;20049;-79
2022/04/19 09:25:44;;;;;;;25.50;9.77;;;;;;;15.15;43.66;101393.56;5025323;28;20022;-79
2022/04/19 09:28:17;;;;;;;18.45;8.63;;;;;;;15.22;45.29;101397.13;5025083;28;20045;-79
2022/04/19 09:30:43;;;;;;;18.75;9.35;;;;;;;15.29;45.15;101399.88;5024195;28;20021;-78
2022/04/19 09:33:10;;;;;;;17.05;8.70;;;;;;;15.37;44.81;101394.72;5023238;28;20026;-78
2022/04/19 09:35:57;;;;;;;16.67;7.80;;;;;;;15.43;44.85;101394.78;5023972;28;20022;-79
2022/04/19 09:38:40;;;;;;;15.77;7.68;;;;;;;15.49;44.58;101393.97;5022125;28;20049;-79
2022/04/19 09:41:07;;;;;;;23.25;8.23;;;;;;;15.57;43.89;101394.06;5021386;28;20021;-79
2022/04/19 09:43:33;;;;;;;15.23;7.38;;;;;;;15.63;43.41;101397.66;5021640;28;20023;-79
2022/04/19 09:46:03;;;;;;;16.15;7.47;;;;;;;15.71;43.21;101392.47;5020975;28;20022;-79
2022/04/19 09:48:33;;;;;;;13.57;7.25;;;;;;;15.75;42.92;101391.66;5023496;28;20025;-79
2022/04/19 09:51:08;;;;;;;14.63;7.47;;;;;;;15.78;42.49;101383.84;5024065;28;20038;-79
2022/04/19 09:53:46;;;;;;;14.15;7.28;;;;;;;15.85;41.93;101392.66;5024437;28;20269;-79
2022/04/19 09:56:19;;;;;;;15.05;7.28;;;;;;;15.90;43.34;101390.09;5024944;28;20021;-79
2022/04/19 09:58:47;;;;;;;14.15;6.78;;;;;;;15.96;41.33;101391.03;5022227;28;20057;-79
2022/04/19 10:09:26;;;;;;;11.48;6.07;;;;;;;16.13;40.51;101388.59;5021232;28;20107;-79
2022/04/19 10:11:52;;;;;;;13.45;7.20;;;;;;;16.21;44.24;101380.75;5024159;28;20113;-79
2022/04/19 10:14:18;;;;;;;15.52;7.43;;;;;;;16.27;40.64;101391.31;5024159;28;20168;-79
2022/04/19 10:16:45;;;;;;;14.93;7.50;;;;;;;16.35;41.51;101378.22;5022513;28;20099;-79
2022/04/19 10:19:10;;;;;;;13.95;7.32;;;;;;;16.42;40.38;101385.31;5024351;28;20280;-79
2022/04/19 10:21:40;;;;;;;11.75;6.28;;;;;;;16.47;41.30;101378.34;5025238;28;20038;-79
2022/04/19 10:24:11;;;;;;;10.27;5.32;;;;;;;16.58;41.00;101378.41;5024129;28;20030;-79
2022/04/19 10:26:51;;;;;;;11.63;6.60;;;;;;;16.63;42.07;101378.47;5023072;28;20022;-79
2022/04/19 10:29:19;;;;;;;10.55;6.03;;;;;;;16.66;39.89;101379.34;5024534;28;20032;-79
2022/04/19 10:32:03;;;;;;;11.73;6.32;;;;;;;16.72;41.98;101391.69;5022329;28;20049;-79
2022/04/19 10:34:30;;;;;;;14.23;6.88;;;;;;;16.79;39.99;101379.44;5022820;28;20265;-79
2022/04/19 10:37:18;;;;;;;14.85;8.25;;;;;;;16.79;39.09;101380.31;5023877;28;20157;-79
2022/04/19 10:40:07;;;;;;;15.35;7.35;;;;;;;16.82;41.80;101387.38;5023993;28;20025;-79
2022/04/19 10:42:40;;;;;;;14.30;7.50;;;;;;;16.91;43.11;101384.81;5024036;28;20255;-79
2022/04/19 10:45:11;;;;;;;14.38;6.68;;;;;;;17.00;42.02;101377.00;5022029;28;20330;-78
2022/04/19 10:47:57;;;;;;;13.48;7.25;;;;;;;17.12;41.49;101373.53;5020926;28;20041;-78
2022/04/19 10:50:35;;;;;;;13.90;7.22;;;;;;;17.25;40.10;101377.09;5023632;28;20022;-78
2022/04/19 10:53:05;;;;;;;16.07;7.97;;;;;;;17.31;41.13;101368.34;5022416;28;20052;-77
2022/04/19 10:55:41;;;;;;;14.45;6.93;;;;;;;17.34;38.55;101368.38;5022488;28;20048;-78
2022/04/19 10:58:16;;;;;;;12.45;6.97;;;;;;;17.40;41.54;101355.22;5022977;28;20327;-78
2022/04/19 11:00:47;;;;;;;10.35;6.20;;;;;;;17.49;41.48;101354.34;5022353;28;20026;-77
2022/04/19 11:03:17;;;;;;;10.60;4.90;;;;;;;17.57;41.64;101357.91;5019561;28;20093;-80
2022/04/19 11:05:44;;;;;;;10.77;5.70;;;;;;;17.59;37.34;101353.50;5018634;28;20021;-79
2022/04/19 11:08:24;;;;;;;12.93;6.20;;;;;;;17.57;38.05;101350.00;5015572;28;20022;-80
2022/04/19 11:10:56;;;;;;;14.55;6.30;;;;;;;17.54;38.37;101348.22;5015008;28;20034;-79
2022/04/19 11:13:26;;;;;;;11.38;6.65;;;;;;;17.53;38.11;101348.22;5018974;28;20097;-79
2022/04/19 11:16:05;;;;;;;11.52;6.20;;;;;;;17.52;37.88;101344.72;5013939;28;20014;-79
2022/04/19 11:18:39;;;;;;;12.88;6.75;;;;;;;17.58;41.45;101350.88;5019966;28;20025;-79
2022/04/19 11:21:07;;;;;;;9.60;5.30;;;;;;;17.70;41.07;101348.28;5018366;28;20042;-79
2022/04/19 11:23:46;;;;;;;11.05;5.80;;;;;;;17.80;40.47;101344.78;5023019;28;20026;-79
2022/04/19 11:26:26;;;;;;;9.85;5.70;;;;;;;17.85;38.77;101337.75;5021937;28;20014;-79
2022/04/19 11:29:10;;;;;;;11.07;5.72;;;;;;;17.89;40.84;101338.63;5017347;28;20086;-79
2022/04/19 11:31:44;;;;;;;10.73;5.45;;;;;;;17.96;39.38;101332.53;5018473;28;20033;-80
2022/04/19 11:34:14;;;;;;;10.43;5.53;;;;;;;18.06;40.10;101334.28;5019860;28;20036;-80
2022/04/19 11:36:41;;;;;;;10.63;5.93;;;;;;;18.07;35.77;101327.25;5022967;28;20278;-80
2022/04/19 11:39:07;;;;;;;9.95;5.28;;;;;;;18.14;39.61;101331.66;5021001;28;20208;-79
2022/04/19 11:46:49;;;;;;;9.10;5.30;;;;;;;18.37;38.27;101336.03;5022323;28;20076;-80
2022/04/19 11:49:25;;;;;;;9.13;5.50;;;;;;;18.45;38.34;101342.22;5022712;28;20030;-80
2022/04/19 11:51:59;;;;;;;9.32;5.32;;;;;;;18.45;35.36;101331.66;5018753;28;20033;-73
2022/04/19 11:54:26;;;;;;;8.32;4.65;;;;;;;18.47;38.27;101339.56;5022121;28;20034;-73
2022/04/19 11:57:12;;;;;;;11.15;5.68;;;;;;;18.51;38.96;101336.91;5022669;28;20125;-73
2022/04/19 11:59:42;;;;;;;10.52;5.63;;;;;;;18.58;37.62;101338.66;5022859;28;20054;-73